Time;durP1;ratioP1;P1;durP2;ratioP2;P2;SDS_P1;SDS_P2;PMS_P1;PMS_P2;Temp;Humidity;BMP_temperature;BMP_pressure;BME280_temperature;BME280_humidity;BME280_pressure;Samples;Min_cycle;Max_cycle;Signal;HPM_P1;HPM_P2
2022/07/20 00:04:52;;;;;;;2.60;1.73;;;;;;;;;;10356223;28;20070;-74
2022/07/20 00:15:11;;;;;;;2.40;1.73;;;;;;;;;;10374006;28;20162;-74
2022/07/20 00:20:12;;;;;;;2.10;1.70;;;;;;;;;;10356442;28;20138;-75
2022/07/20 00:25:12;;;;;;;3.28;1.77;;;;;;;;;;10355532;28;20040;-74
2022/07/20 00:30:12;;;;;;;2.10;1.73;;;;;;;;;;10373360;28;20037;-74
2022/07/20 00:35:14;;;;;;;1.98;1.73;;;;;;;;;;10355487;28;20104;-75
2022/07/20 00:40:15;;;;;;;2.03;1.83;;;;;;;;;;10355204;28;20048;-75
2022/07/20 00:45:15;;;;;;;2.60;2.10;;;;;;;;;;10354973;28;20122;-75
2022/07/20 00:50:15;;;;;;;2.85;1.70;;;;;;;;;;10354724;28;20026;-75
2022/07/20 00:55:15;;;;;;;2.63;1.90;;;;;;;;;;10354654;28;20508;-74
2022/07/20 01:00:16;;;;;;;4.63;2.13;;;;;;;;;;10354542;28;20049;-75
2022/07/20 01:05:16;;;;;;;5.10;2.20;;;;;;;;;;10354451;28;20499;-75
2022/07/20 01:10:17;;;;;;;4.57;2.13;;;;;;;;;;10354159;28;20022;-75
2022/07/20 01:15:17;;;;;;;3.90;2.17;;;;;;;;;;10353342;28;20030;-75
2022/07/20 01:20:18;;;;;;;2.38;2.00;;;;;;;;;;10353798;28;20038;-75
2022/07/20 01:25:18;;;;;;;3.70;1.73;;;;;;;;;;10353581;28;20047;-75
2022/07/20 01:30:18;;;;;;;2.10;1.90;;;;;;;;;;10371376;28;20034;-75
2022/07/20 01:35:18;;;;;;;2.78;1.98;;;;;;;;;;10354164;28;20038;-75
2022/07/20 01:40:19;;;;;;;3.17;2.10;;;;;;;;;;10370929;28;20034;-75
2022/07/20 01:45:19;;;;;;;2.88;1.75;;;;;;;;;;10353183;28;20500;-75
2022/07/20 01:50:19;;;;;;;3.13;2.13;;;;;;;;;;10353026;28;20026;-75
2022/07/20 01:55:20;;;;;;;2.28;2.00;;;;;;;;;;10353057;28;20070;-76
2022/07/20 02:00:20;;;;;;;1.92;1.75;;;;;;;;;;10352896;28;20397;-75
2022/07/20 02:05:20;;;;;;;3.73;1.93;;;;;;;;;;10370414;28;20504;-74
2022/07/20 02:10:20;;;;;;;3.28;1.80;;;;;;;;;;10352705;28;20382;-75
2022/07/20 02:20:40;;;;;;;5.47;2.00;;;;;;;;;;10370262;28;20018;-74
2022/07/20 02:25:40;;;;;;;2.95;2.17;;;;;;;;;;10358291;28;20030;-75
2022/07/20 02:30:41;;;;;;;3.63;2.00;;;;;;;;;;10360346;28;20117;-74
2022/07/20 02:35:41;;;;;;;2.53;1.93;;;;;;;;;;10360272;28;20042;-75
2022/07/20 02:40:41;;;;;;;2.38;1.90;;;;;;;;;;10359762;28;20265;-74
2022/07/20 02:45:41;;;;;;;5.53;1.90;;;;;;;;;;10359692;28;20113;-74
2022/07/20 02:50:42;;;;;;;2.30;2.10;;;;;;;;;;10359907;28;20018;-74
2022/07/20 02:55:42;;;;;;;4.93;2.28;;;;;;;;;;10359443;28;20061;-75
2022/07/20 03:00:43;;;;;;;4.50;2.58;;;;;;;;;;10359185;28;20087;-75
2022/07/20 03:05:43;;;;;;;3.97;2.28;;;;;;;;;;10359195;28;20030;-74
2022/07/20 03:10:43;;;;;;;3.65;1.83;;;;;;;;;;10358555;28;20022;-76
2022/07/20 03:15:43;;;;;;;11.70;2.85;;;;;;;;;;10358677;28;20084;-75
2022/07/20 03:20:44;;;;;;;3.83;2.47;;;;;;;;;;10358380;28;20055;-75
2022/07/20 03:25:44;;;;;;;5.47;2.63;;;;;;;;;;10358287;28;20033;-75
2022/07/20 03:30:44;;;;;;;8.77;3.30;;;;;;;;;;10358026;28;20092;-75
2022/07/20 03:35:45;;;;;;;4.53;2.70;;;;;;;;;;10374667;28;20520;-75
2022/07/20 03:40:45;;;;;;;8.35;2.65;;;;;;;;;;10357660;28;20025;-75
2022/07/20 03:45:45;;;;;;;3.60;3.08;;;;;;;;;;10357984;28;20030;-76
2022/07/20 03:50:46;;;;;;;7.95;4.18;;;;;;;;;;10357670;28;20365;-75
2022/07/20 03:55:46;;;;;;;8.80;3.92;;;;;;;;;;10374716;28;20026;-75
2022/07/20 04:00:47;;;;;;;11.77;4.40;;;;;;;;;;10356684;28;20053;-77
2022/07/20 04:05:47;;;;;;;7.80;4.38;;;;;;;;;;10356490;28;20037;-76
2022/07/20 04:10:47;;;;;;;9.30;3.87;;;;;;;;;;10356902;28;20036;-76
2022/07/20 04:15:47;;;;;;;8.60;4.30;;;;;;;;;;10356357;28;20033;-75
2022/07/20 04:20:48;;;;;;;6.67;4.00;;;;;;;;;;10355861;28;20037;-76
2022/07/20 04:25:48;;;;;;;7.82;3.70;;;;;;;;;;10355712;28;20513;-75
2022/07/20 04:30:48;;;;;;;7.13;4.20;;;;;;;;;;10373086;28;20503;-76
2022/07/20 04:35:49;;;;;;;6.20;4.05;;;;;;;;;;10355247;28;20549;-76
2022/07/20 04:40:49;;;;;;;13.47;3.43;;;;;;;;;;10354992;28;20038;-75
2022/07/20 04:45:49;;;;;;;9.77;3.78;;;;;;;;;;10354197;28;20261;-76
2022/07/20 04:50:49;;;;;;;8.05;3.58;;;;;;;;;;10354261;28;20188;-76
2022/07/20 04:55:50;;;;;;;6.10;3.47;;;;;;;;;;10354413;28;20042;-77
2022/07/20 05:00:50;;;;;;;6.72;3.40;;;;;;;;;;10354094;28;20058;-75
2022/07/20 05:05:50;;;;;;;5.60;3.00;;;;;;;;;;10354399;28;20037;-75
2022/07/20 05:10:50;;;;;;;13.75;3.83;;;;;;;;;;10371683;28;20041;-75
2022/07/20 05:15:51;;;;;;;7.97;3.90;;;;;;;;;;10354017;28;20040;-77
2022/07/20 05:20:51;;;;;;;5.90;5.00;;;;;;;;;;10353343;28;20511;-76
2022/07/20 05:25:51;;;;;;;6.63;3.65;;;;;;;;;;10353337;28;20033;-76
2022/07/20 05:30:52;;;;;;;6.88;3.30;;;;;;;;;;10353390;28;20126;-76
2022/07/20 05:35:52;;;;;;;13.03;4.33;;;;;;;;;;10353097;28;20026;-76
2022/07/20 05:40:52;;;;;;;7.47;3.65;;;;;;;;;;10353452;28;20408;-75
2022/07/20 05:45:53;;;;;;;9.73;3.47;;;;;;;;;;10353321;28;20480;-74
2022/07/20 05:50:53;;;;;;;5.68;3.20;;;;;;;;;;10352302;28;20480;-75
2022/07/20 05:55:53;;;;;;;8.05;3.53;;;;;;;;;;10352131;28;20120;-74
2022/07/20 06:00:53;;;;;;;7.30;3.33;;;;;;;;;;10358770;28;20057;-76
2022/07/20 06:05:55;;;;;;;8.43;3.40;;;;;;;;;;10360485;28;20054;-74
2022/07/20 06:10:55;;;;;;;4.90;3.00;;;;;;;;;;10378210;28;20034;-75
2022/07/20 06:15:55;;;;;;;7.10;3.47;;;;;;;;;;10360337;28;20116;-75
2022/07/20 06:20:56;;;;;;;7.30;3.60;;;;;;;;;;10360253;28;20034;-75
2022/07/20 06:25:56;;;;;;;10.82;3.15;;;;;;;;;;10376854;28;20065;-75
2022/07/20 06:30:56;;;;;;;8.90;3.72;;;;;;;;;;10359379;28;20034;-74
2022/07/20 06:35:56;;;;;;;11.50;2.95;;;;;;;;;;10377367;28;20112;-76
2022/07/20 06:40:56;;;;;;;12.43;3.38;;;;;;;;;;10359658;28;20033;-74
2022/07/20 06:45:57;;;;;;;9.32;3.28;;;;;;;;;;10359197;28;20045;-74
2022/07/20 06:50:57;;;;;;;10.15;3.35;;;;;;;;;;10359019;28;20128;-74
2022/07/20 06:55:57;;;;;;;9.60;3.17;;;;;;;;;;10359357;28;20041;-75
2022/07/20 07:00:57;;;;;;;9.85;3.33;;;;;;;;;;10358582;28;20045;-74
2022/07/20 07:05:58;;;;;;;5.40;3.20;;;;;;;;;;10358636;28;20042;-74
2022/07/20 07:10:58;;;;;;;6.22;2.40;;;;;;;;;;10357284;28;20117;-73
2022/07/20 07:15:58;;;;;;;10.98;2.63;;;;;;;;;;10358091;28;20026;-74
2022/07/20 07:20:59;;;;;;;5.07;2.40;;;;;;;;;;10357900;28;20483;-74
2022/07/20 07:25:59;;;;;;;12.20;3.47;;;;;;;;;;10358433;28;20280;-74
2022/07/20 07:30:59;;;;;;;12.23;3.20;;;;;;;;;;10357636;28;20439;-75
2022/07/20 07:35:59;;;;;;;9.50;2.63;;;;;;;;;;10357894;28;20167;-75
2022/07/20 07:41:00;;;;;;;17.58;2.63;;;;;;;;;;10357961;28;20033;-74
2022/07/20 07:46:00;;;;;;;16.83;2.40;;;;;;;;;;10357237;28;20137;-75
2022/07/20 07:51:00;;;;;;;8.73;2.58;;;;;;;;;;10374354;28;20113;-75
2022/07/20 07:56:01;;;;;;;18.37;2.73;;;;;;;;;;10374201;28;20036;-75
2022/07/20 08:01:01;;;;;;;11.23;2.25;;;;;;;;;;10356511;28;20046;-75
2022/07/20 08:06:03;;;;;;;3.58;1.52;;;;;;;;;;10356273;28;20034;-75
2022/07/20 08:11:03;;;;;;;8.52;1.83;;;;;;;;;;10373899;28;20030;-74
2022/07/20 08:16:04;;;;;;;3.80;1.55;;;;;;;;;;10339565;28;20380;-75
2022/07/20 08:21:04;;;;;;;9.40;1.83;;;;;;;;;;10355337;28;20563;-75
2022/07/20 08:26:05;;;;;;;4.57;1.83;;;;;;;;;;10373415;28;20096;-75
2022/07/20 08:31:05;;;;;;;3.07;1.40;;;;;;;;;;10373434;28;20125;-76
2022/07/20 08:36:06;;;;;;;10.95;1.90;;;;;;;;;;10355300;28;20072;-75
2022/07/20 08:41:07;;;;;;;8.88;1.65;;;;;;;;;;10355102;28;20022;-75
2022/07/20 08:46:07;;;;;;;2.80;1.17;;;;;;;;;;10355010;28;20038;-75
2022/07/20 08:51:07;;;;;;;7.50;1.42;;;;;;;;;;10354574;28;20495;-75
2022/07/20 08:56:08;;;;;;;2.75;1.17;;;;;;;;;;10354136;28;20030;-75
2022/07/20 09:01:12;;;;;;;5.90;1.10;;;;;;;;;;10354073;28;20064;-75
2022/07/20 09:06:13;;;;;;;2.70;0.90;;;;;;;;;;10371840;28;20459;-75
2022/07/20 09:11:13;;;;;;;4.50;1.10;;;;;;;;;;10354070;28;20087;-75
2022/07/20 09:16:13;;;;;;;1.20;0.82;;;;;;;;;;10371218;28;20065;-74
2022/07/20 09:21:13;;;;;;;5.93;0.93;;;;;;;;;;10353563;28;20030;-74
2022/07/20 09:26:14;;;;;;;3.13;0.85;;;;;;;;;;10353398;28;20022;-75
2022/07/20 09:31:19;;;;;;;1.92;0.82;;;;;;;;;;10353112;28;20034;-75
2022/07/20 09:36:21;;;;;;;2.45;0.90;;;;;;;;;;10352607;28;20036;-75
2022/07/20 09:41:28;;;;;;;3.65;0.90;;;;;;;;;;10353143;28;20037;-76
2022/07/20 09:46:32;;;;;;;1.77;0.80;;;;;;;;;;10352655;28;20435;-75
2022/07/20 09:51:40;;;;;;;1.65;0.93;;;;;;;;;;10370304;28;20022;-76
2022/07/20 09:56:42;;;;;;;1.75;0.80;;;;;;;;;;10352637;28;20033;-74
2022/07/20 10:01:44;;;;;;;4.82;0.80;;;;;;;;;;10370174;28;20487;-73
2022/07/20 10:06:49;;;;;;;1.13;0.70;;;;;;;;;;10352567;28;20061;-76
2022/07/20 10:11:49;;;;;;;1.25;0.50;;;;;;;;;;10352481;28;20525;-74
2022/07/20 10:16:50;;;;;;;3.50;0.47;;;;;;;;;;10352337;28;20041;-74
2022/07/20 10:21:52;;;;;;;4.30;0.93;;;;;;;;;;10352079;28;20462;-74
2022/07/20 10:26:54;;;;;;;5.30;1.20;;;;;;;;;;10352169;28;20030;-75
2022/07/20 10:31:56;;;;;;;2.72;0.70;;;;;;;;;;10351988;28;20048;-75
2022/07/20 10:37:15;;;;;;;2.78;0.60;;;;;;;;;;10352011;28;20026;-75
2022/07/20 10:42:30;;;;;;;7.05;0.95;;;;;;;;;;10368255;28;20125;-76
2022/07/20 10:47:56;;;;;;;4.43;1.23;;;;;;;;;;10358635;28;20118;-75
2022/07/20 10:52:58;;;;;;;4.82;1.00;;;;;;;;;;10354015;28;20104;-76
2022/07/20 10:57:59;;;;;;;1.70;0.63;;;;;;;;;;10358858;28;20034;-74
2022/07/20 11:03:00;;;;;;;4.00;0.90;;;;;;;;;;10358870;28;20099;-75
2022/07/20 11:08:04;;;;;;;3.25;0.90;;;;;;;;;;10358703;28;20033;-75
2022/07/20 11:13:13;;;;;;;1.45;0.57;;;;;;;;;;10358447;28;20083;-75
2022/07/20 11:18:15;;;;;;;4.05;0.90;;;;;;;;;;10358071;28;20041;-75
2022/07/20 11:23:17;;;;;;;2.35;0.95;;;;;;;;;;10357828;28;20502;-74
2022/07/20 11:28:18;;;;;;;2.58;0.88;;;;;;;;;;10375926;28;20104;-74
2022/07/20 11:33:26;;;;;;;2.28;0.90;;;;;;;;;;10375356;28;20022;-74
2022/07/20 11:38:33;;;;;;;6.97;1.88;;;;;;;;;;10357485;28;20038;-74
2022/07/20 11:43:34;;;;;;;3.45;1.25;;;;;;;;;;10357578;28;20120;-74
2022/07/20 11:48:34;;;;;;;3.43;1.37;;;;;;;;;;10356842;28;20113;-74
2022/07/20 11:53:35;;;;;;;1.63;0.98;;;;;;;;;;10356770;28;20257;-74
2022/07/20 11:58:37;;;;;;;2.97;1.10;;;;;;;;;;10356342;28;20507;-75
2022/07/20 12:03:38;;;;;;;3.28;1.40;;;;;;;;;;10340200;28;20057;-76
2022/07/20 12:08:39;;;;;;;2.28;1.50;;;;;;;;;;10373987;28;20018;-73
2022/07/20 12:13:43;;;;;;;3.53;1.13;;;;;;;;;;10356173;28;20030;-74
2022/07/20 12:18:45;;;;;;;5.72;1.23;;;;;;;;;;10355876;28;20068;-74
2022/07/20 12:23:46;;;;;;;4.53;1.52;;;;;;;;;;10373248;28;20112;-74
2022/07/20 12:28:47;;;;;;;1.55;1.00;;;;;;;;;;10372539;28;20467;-73
2022/07/20 12:34:00;;;;;;;3.60;1.20;;;;;;;;;;10354711;28;20052;-74
2022/07/20 12:39:00;;;;;;;14.48;1.35;;;;;;;;;;10382605;28;20080;-76
2022/07/20 12:44:21;;;;;;;2.43;1.27;;;;;;;;;;10371257;28;20057;-76
2022/07/20 12:49:23;;;;;;;1.13;1.02;;;;;;;;;;10371779;28;20435;-75
2022/07/20 12:54:24;;;;;;;2.70;1.15;;;;;;;;;;10372631;28;20065;-75
2022/07/20 12:59:24;;;;;;;3.85;1.52;;;;;;;;;;10354498;28;20520;-75
2022/07/20 13:04:25;;;;;;;5.90;1.70;;;;;;;;;;10354085;28;20034;-75
2022/07/20 13:09:25;;;;;;;4.88;1.65;;;;;;;;;;10353278;28;20144;-75
2022/07/20 13:14:25;;;;;;;4.18;1.27;;;;;;;;;;10337495;28;20412;-75
2022/07/20 13:19:25;;;;;;;2.17;1.23;;;;;;;;;;10353475;28;20467;-76
2022/07/20 13:24:26;;;;;;;4.05;1.50;;;;;;;;;;10370900;28;20030;-74
2022/07/20 13:29:26;;;;;;;3.33;1.37;;;;;;;;;;10353009;28;20060;-74
2022/07/20 13:34:26;;;;;;;2.95;1.15;;;;;;;;;;10370462;28;20041;-74
2022/07/20 13:39:27;;;;;;;4.63;1.00;;;;;;;;;;10352829;28;20042;-75
2022/07/20 13:44:27;;;;;;;2.45;1.30;;;;;;;;;;10352384;28;20037;-74
2022/07/20 13:49:27;;;;;;;2.03;1.33;;;;;;;;;;10352244;28;20065;-75
2022/07/20 13:54:28;;;;;;;3.95;1.15;;;;;;;;;;10369725;28;20053;-74
2022/07/20 13:59:28;;;;;;;5.43;1.50;;;;;;;;;;10352518;28;20547;-75
2022/07/20 14:04:28;;;;;;;6.83;1.30;;;;;;;;;;10352160;28;20368;-75
2022/07/20 14:09:29;;;;;;;6.20;1.50;;;;;;;;;;10351971;28;20030;-74
2022/07/20 14:14:29;;;;;;;5.10;1.40;;;;;;;;;;10351904;28;20521;-74
2022/07/20 14:19:29;;;;;;;4.18;1.10;;;;;;;;;;10354222;28;20065;-76
2022/07/20 14:24:29;;;;;;;1.95;1.27;;;;;;;;;;10359599;28;20329;-75
2022/07/20 14:29:30;;;;;;;3.17;1.27;;;;;;;;;;10359550;28;20029;-74
2022/07/20 14:34:30;;;;;;;6.38;1.35;;;;;;;;;;10359895;28;20042;-76
2022/07/20 14:39:30;;;;;;;6.00;1.40;;;;;;;;;;10359263;28;20120;-74
2022/07/20 14:44:31;;;;;;;5.07;1.52;;;;;;;;;;10358949;28;20492;-76
2022/07/20 14:49:31;;;;;;;3.17;1.58;;;;;;;;;;10358614;28;20037;-76
2022/07/20 14:54:31;;;;;;;1.88;1.38;;;;;;;;;;10358585;28;20040;-74
2022/07/20 14:59:32;;;;;;;3.42;1.10;;;;;;;;;;10358282;28;20042;-74
2022/07/20 15:04:32;;;;;;;3.00;1.23;;;;;;;;;;10358654;28;20048;-76
2022/07/20 15:09:32;;;;;;;5.30;1.00;;;;;;;;;;10358006;28;20026;-74
2022/07/20 15:14:33;;;;;;;4.65;1.60;;;;;;;;;;10358091;28;20068;-74
2022/07/20 15:19:34;;;;;;;3.08;1.50;;;;;;;;;;10389226;28;20112;-74
2022/07/20 15:24:34;;;;;;;2.80;1.50;;;;;;;;;;10341601;28;20124;-74
2022/07/20 15:29:34;;;;;;;1.67;1.20;;;;;;;;;;10374988;28;20800;-74
2022/07/20 15:34:35;;;;;;;3.15;1.42;;;;;;;;;;10374574;28;20038;-75
2022/07/20 15:39:35;;;;;;;2.63;1.42;;;;;;;;;;10357412;28;20063;-74
2022/07/20 15:44:36;;;;;;;4.68;1.45;;;;;;;;;;10356948;28;20061;-74
2022/07/20 15:49:36;;;;;;;5.15;1.50;;;;;;;;;;10374136;28;20037;-76
2022/07/20 15:54:37;;;;;;;4.20;1.90;;;;;;;;;;10356655;28;20042;-74
2022/07/20 15:59:38;;;;;;;2.47;1.45;;;;;;;;;;10356793;28;20045;-74
2022/07/20 16:04:38;;;;;;;7.53;2.00;;;;;;;;;;10356548;28;20037;-74
2022/07/20 16:09:39;;;;;;;2.67;1.47;;;;;;;;;;10356219;28;20048;-75
2022/07/20 16:14:40;;;;;;;3.88;1.92;;;;;;;;;;10356228;28;20037;-75
2022/07/20 16:19:40;;;;;;;3.67;1.77;;;;;;;;;;10356007;28;20038;-75
2022/07/20 16:24:41;;;;;;;6.45;1.85;;;;;;;;;;10355847;28;20037;-75
2022/07/20 16:29:41;;;;;;;8.85;2.10;;;;;;;;;;10355718;28;20034;-75
2022/07/20 16:34:41;;;;;;;3.57;1.30;;;;;;;;;;10373087;28;20036;-75
2022/07/20 16:39:42;;;;;;;2.63;1.93;;;;;;;;;;10355829;28;20034;-76
2022/07/20 16:44:42;;;;;;;4.55;1.80;;;;;;;;;;10354651;28;20120;-75
2022/07/20 16:49:42;;;;;;;1.65;1.25;;;;;;;;;;10354800;28;20022;-75
2022/07/20 16:54:42;;;;;;;2.20;1.23;;;;;;;;;;10354666;28;20033;-74
2022/07/20 16:59:43;;;;;;;6.05;1.35;;;;;;;;;;10354034;28;20085;-75
2022/07/20 17:04:43;;;;;;;3.42;1.48;;;;;;;;;;10354353;28;20057;-75
2022/07/20 17:09:43;;;;;;;3.55;1.17;;;;;;;;;;10354149;28;20164;-74
2022/07/20 17:14:43;;;;;;;1.92;1.40;;;;;;;;;;10353657;28;20033;-74
2022/07/20 17:19:44;;;;;;;2.55;1.20;;;;;;;;;;10353658;28;20030;-74
2022/07/20 17:24:45;;;;;;;1.85;1.30;;;;;;;;;;10353619;28;20042;-74
2022/07/20 17:29:45;;;;;;;2.00;1.35;;;;;;;;;;10353339;28;20397;-74
2022/07/20 17:34:45;;;;;;;2.33;1.33;;;;;;;;;;10353223;28;20041;-75
2022/07/20 17:39:45;;;;;;;3.22;1.30;;;;;;;;;;10353810;28;20149;-75
2022/07/20 17:44:46;;;;;;;2.40;1.90;;;;;;;;;;10370714;28;20045;-75
2022/07/20 17:49:46;;;;;;;4.50;2.17;;;;;;;;;;10370576;28;20044;-75
2022/07/20 17:54:46;;;;;;;7.28;2.10;;;;;;;;;;10352188;28;20038;-75
2022/07/20 17:59:47;;;;;;;2.90;1.85;;;;;;;;;;10352392;28;20042;-75
2022/07/20 18:04:47;;;;;;;4.13;1.70;;;;;;;;;;10352705;28;20058;-74
2022/07/20 18:09:47;;;;;;;4.27;2.10;;;;;;;;;;10352591;28;20092;-75
2022/07/20 18:14:48;;;;;;;6.05;2.67;;;;;;;;;;10352338;28;20492;-74
2022/07/20 18:19:48;;;;;;;13.00;3.73;;;;;;;;;;10352510;28;20056;-75
2022/07/20 18:24:48;;;;;;;5.85;3.05;;;;;;;;;;10352264;28;20335;-75
2022/07/20 18:29:48;;;;;;;7.13;2.37;;;;;;;;;;10352074;28;20034;-75
2022/07/20 18:34:49;;;;;;;8.18;2.70;;;;;;;;;;10352042;28;20056;-75
2022/07/20 18:39:49;;;;;;;3.95;2.17;;;;;;;;;;10352003;28;20042;-75
2022/07/20 18:44:49;;;;;;;4.78;2.58;;;;;;;;;;10351498;28;20503;-75
2022/07/20 18:49:49;;;;;;;7.30;2.53;;;;;;;;;;10369289;28;20467;-75
2022/07/20 18:54:50;;;;;;;5.93;2.33;;;;;;;;;;10351522;28;20124;-75
2022/07/20 18:59:50;;;;;;;9.75;3.17;;;;;;;;;;10369263;28;20048;-76
2022/07/20 19:04:50;;;;;;;12.20;2.80;;;;;;;;;;10351436;28;20180;-75
2022/07/20 19:09:53;;;;;;;5.75;2.65;;;;;;;;;;10358454;28;20030;-75
2022/07/20 19:14:54;;;;;;;10.70;3.20;;;;;;;;;;10358683;28;20041;-75
2022/07/20 19:19:54;;;;;;;8.18;3.13;;;;;;;;;;10358694;28;20511;-75
2022/07/20 19:24:54;;;;;;;7.68;3.78;;;;;;;;;;10357867;28;20498;-75
2022/07/20 19:29:55;;;;;;;8.45;3.47;;;;;;;;;;10358192;28;20049;-75
2022/07/20 19:34:55;;;;;;;9.13;3.15;;;;;;;;;;10357763;28;20037;-76
2022/07/20 19:39:55;;;;;;;7.93;3.38;;;;;;;;;;10357578;28;20038;-76
2022/07/20 19:44:56;;;;;;;7.38;3.38;;;;;;;;;;10357373;28;20087;-75
2022/07/20 19:49:56;;;;;;;6.80;2.97;;;;;;;;;;10357110;28;20034;-75
2022/07/20 19:54:57;;;;;;;6.60;3.33;;;;;;;;;;10374630;28;20045;-76
2022/07/20 19:59:57;;;;;;;5.47;2.90;;;;;;;;;;10356626;28;20062;-75
2022/07/20 20:04:57;;;;;;;10.57;3.00;;;;;;;;;;10356422;28;20496;-75
2022/07/20 20:09:58;;;;;;;3.38;2.30;;;;;;;;;;10356515;28;20068;-75
2022/07/20 20:14:58;;;;;;;4.70;2.70;;;;;;;;;;10355872;28;20121;-75
2022/07/20 20:19:58;;;;;;;6.15;3.20;;;;;;;;;;10380032;28;20103;-75
2022/07/20 20:24:58;;;;;;;5.93;3.30;;;;;;;;;;10373420;28;20492;-75
2022/07/20 20:29:59;;;;;;;6.47;3.13;;;;;;;;;;10355564;28;20464;-75
2022/07/20 20:34:59;;;;;;;5.78;3.38;;;;;;;;;;10373270;28;20042;-75
2022/07/20 20:39:59;;;;;;;5.72;3.13;;;;;;;;;;10355365;28;20500;-75
2022/07/20 20:44:59;;;;;;;3.85;2.67;;;;;;;;;;10355304;28;20083;-75
2022/07/20 20:50:00;;;;;;;3.83;2.10;;;;;;;;;;10355401;28;20510;-75
2022/07/20 20:55:00;;;;;;;4.32;1.80;;;;;;;;;;10354780;28;20030;-74
2022/07/20 21:00:00;;;;;;;5.95;2.55;;;;;;;;;;10338299;28;20467;-74
2022/07/20 21:05:01;;;;;;;7.60;2.47;;;;;;;;;;10372149;28;20558;-76
2022/07/20 21:10:04;;;;;;;5.07;2.43;;;;;;;;;;10372112;28;20132;-75
2022/07/20 21:15:05;;;;;;;5.20;2.60;;;;;;;;;;10371982;28;20088;-74
2022/07/20 21:20:06;;;;;;;9.07;2.53;;;;;;;;;;10355568;28;20041;-75
2022/07/20 21:25:06;;;;;;;4.95;2.35;;;;;;;;;;10355293;28;20412;-74
2022/07/20 21:30:07;;;;;;;6.10;2.77;;;;;;;;;;10353205;28;20128;-74
2022/07/20 21:35:08;;;;;;;5.93;2.33;;;;;;;;;;10353573;28;20363;-75
2022/07/20 21:40:10;;;;;;;3.35;2.20;;;;;;;;;;10371279;28;20041;-75
2022/07/20 21:45:10;;;;;;;4.88;2.20;;;;;;;;;;10353218;28;20037;-75
2022/07/20 21:50:11;;;;;;;4.57;2.33;;;;;;;;;;10353066;28;20022;-74
2022/07/20 21:55:13;;;;;;;3.67;2.33;;;;;;;;;;10370927;28;20030;-75
2022/07/20 22:00:14;;;;;;;3.83;2.78;;;;;;;;;;10353060;28;20055;-76
2022/07/20 22:05:14;;;;;;;3.95;2.70;;;;;;;;;;10352816;28;20041;-74
2022/07/20 22:10:15;;;;;;;4.70;3.08;;;;;;;;;;10353002;28;20492;-74
2022/07/20 22:15:15;;;;;;;8.90;3.27;;;;;;;;;;10352648;28;20026;-75
2022/07/20 22:20:16;;;;;;;6.22;2.17;;;;;;;;;;10352595;28;20265;-74
2022/07/20 22:25:17;;;;;;;4.95;2.35;;;;;;;;;;10352634;28;20030;-75
2022/07/20 22:30:17;;;;;;;4.10;2.27;;;;;;;;;;10352555;28;20500;-74
2022/07/20 22:35:17;;;;;;;3.28;2.33;;;;;;;;;;10352280;28;20033;-74
2022/07/20 22:40:18;;;;;;;5.07;2.30;;;;;;;;;;10371689;28;20057;-75
2022/07/20 22:45:18;;;;;;;7.03;2.53;;;;;;;;;;10360051;28;20022;-74
2022/07/20 22:50:18;;;;;;;5.83;3.40;;;;;;;;;;10359762;28;20032;-75
2022/07/20 22:55:19;;;;;;;3.97;2.40;;;;;;;;;;10359606;28;20057;-75
2022/07/20 23:00:20;;;;;;;2.55;2.30;;;;;;;;;;10359171;28;20316;-74
2022/07/20 23:05:21;;;;;;;3.05;2.40;;;;;;;;;;10376780;28;20034;-75
2022/07/20 23:10:22;;;;;;;3.10;2.25;;;;;;;;;;10359000;28;20121;-75
2022/07/20 23:15:22;;;;;;;4.05;2.22;;;;;;;;;;10358670;28;20053;-74
2022/07/20 23:20:24;;;;;;;7.07;2.38;;;;;;;;;;10358557;28;20038;-74
2022/07/20 23:25:24;;;;;;;4.40;2.75;;;;;;;;;;10358582;28;20037;-75
2022/07/20 23:30:24;;;;;;;2.97;2.23;;;;;;;;;;10358219;28;20025;-74
2022/07/20 23:35:24;;;;;;;6.85;2.38;;;;;;;;;;10375654;28;20036;-74
2022/07/20 23:40:25;;;;;;;5.80;2.73;;;;;;;;;;10358161;28;20120;-75
2022/07/20 23:45:25;;;;;;;3.73;2.10;;;;;;;;;;10357650;28;20029;-73
2022/07/20 23:50:25;;;;;;;2.40;2.00;;;;;;;;;;10375257;28;20558;-74
2022/07/20 23:55:26;;;;;;;2.30;1.98;;;;;;;;;;10357037;28;20051;-74
